createdAt,value
2018-06-05T00:00:26.880Z,65.00
2018-06-05T00:02:55.220Z,65.10
2018-06-05T00:05:23.601Z,66.30
2018-06-05T00:07:51.940Z,66.10
2018-06-05T00:10:20.388Z,66.30
2018-06-05T00:12:48.828Z,66.80
2018-06-05T00:15:17.178Z,66.90
2018-06-05T00:17:46.949Z,68.00
2018-06-05T00:20:15.334Z,67.60
2018-06-05T00:22:43.678Z,67.90
2018-06-05T00:25:12.527Z,68.40
2018-06-05T00:27:40.851Z,68.60
2018-06-05T00:30:09.262Z,68.80
2018-06-05T00:35:05.643Z,69.50
2018-06-05T00:37:34.010Z,69.80
2018-06-05T00:40:02.400Z,69.90
2018-06-05T00:42:30.767Z,70.00
2018-06-05T00:44:59.119Z,70.40
2018-06-05T00:47:27.515Z,70.60
2018-06-05T00:49:55.878Z,70.90
2018-06-05T00:52:24.233Z,71.10
2018-06-05T00:54:52.606Z,71.40
2018-06-05T00:57:20.997Z,71.60
2018-06-05T00:59:49.352Z,71.70
2018-06-05T01:02:17.746Z,72.00
2018-06-05T01:04:46.055Z,71.60
2018-06-05T01:07:14.416Z,72.50
2018-06-05T01:09:42.747Z,72.80
2018-06-05T01:12:11.106Z,73.10
2018-06-05T01:14:39.431Z,73.20
2018-06-05T01:17:07.796Z,73.60
2018-06-05T01:19:36.145Z,73.90
2018-06-05T01:22:04.522Z,74.00
2018-06-05T01:24:32.845Z,74.40
2018-06-05T01:27:01.244Z,74.60
2018-06-05T01:29:29.587Z,74.90
2018-06-05T01:31:57.944Z,75.20
2018-06-05T01:34:26.275Z,75.30
2018-06-05T01:36:54.627Z,75.60
2018-06-05T01:39:22.958Z,75.70
2018-06-05T01:41:51.313Z,76.10
2018-06-05T01:44:19.726Z,76.30
2018-06-05T01:46:48.094Z,76.80
2018-06-05T01:49:16.446Z,77.40
2018-06-05T01:51:44.782Z,77.10
2018-06-05T01:54:13.142Z,77.40
2018-06-05T01:56:41.447Z,77.40
2018-06-05T01:59:09.830Z,77.80
2018-06-05T02:01:38.208Z,77.90
2018-06-05T02:04:06.666Z,78.10
2018-06-05T02:06:35.031Z,78.00
2018-06-05T02:09:04.125Z,78.50
2018-06-05T02:11:32.496Z,78.60
2018-06-05T02:14:00.984Z,78.80
2018-06-05T02:16:29.378Z,78.60
2018-06-05T02:18:57.787Z,78.80
2018-06-05T02:21:26.215Z,78.80
2018-06-05T02:23:54.616Z,79.00
2018-06-05T02:26:22.993Z,79.50
2018-06-05T02:28:51.386Z,79.50
2018-06-05T02:31:19.772Z,79.60
2018-06-05T02:33:48.164Z,79.50
2018-06-05T02:36:16.613Z,79.80
2018-06-05T02:38:45.046Z,80.10
2018-06-05T02:41:13.650Z,81.00
2018-06-05T02:43:42.049Z,80.50
2018-06-05T02:46:10.452Z,80.80
2018-06-05T02:48:38.919Z,81.00
2018-06-05T02:51:07.317Z,81.10
2018-06-05T02:53:35.755Z,81.30
2018-06-05T02:56:04.235Z,81.30
2018-06-05T02:58:32.607Z,81.40
2018-06-05T03:01:01.006Z,81.70
2018-06-05T03:03:29.448Z,81.80
2018-06-05T03:08:25.933Z,81.50
2018-06-05T03:10:54.277Z,81.30
2018-06-05T03:13:22.770Z,81.10
2018-06-05T03:15:51.245Z,81.30
2018-06-05T03:18:19.661Z,81.60
2018-06-05T03:20:48.018Z,81.60
2018-06-05T03:23:16.398Z,81.90
2018-06-05T03:25:44.777Z,82.30
2018-06-05T03:28:13.168Z,82.50
2018-06-05T03:30:41.522Z,82.40
2018-06-05T03:33:09.858Z,82.40
2018-06-05T03:35:38.219Z,82.50
2018-06-05T03:38:06.584Z,82.50
2018-06-05T03:40:34.998Z,82.60
2018-06-05T03:43:03.350Z,82.70
2018-06-05T03:45:32.083Z,82.90
2018-06-05T03:48:00.622Z,82.90
2018-06-05T03:50:29.020Z,83.00
2018-06-05T03:52:57.378Z,82.90
2018-06-05T03:55:25.785Z,83.80
2018-06-05T03:57:54.157Z,82.90
2018-06-05T04:00:23.078Z,82.90
2018-06-05T04:02:51.465Z,83.00
2018-06-05T04:05:19.925Z,82.50
2018-06-05T04:07:48.267Z,82.40
2018-06-05T04:10:16.715Z,82.40
2018-06-05T04:12:45.089Z,82.60
2018-06-05T04:15:13.803Z,82.50
2018-06-05T04:17:42.161Z,82.30
2018-06-05T04:20:10.551Z,82.00
2018-06-05T04:22:38.927Z,82.10
2018-06-05T04:25:07.354Z,81.80
2018-06-05T04:27:35.789Z,81.50
2018-06-05T04:30:04.250Z,81.40
2018-06-05T04:35:00.690Z,81.20
2018-06-05T04:37:29.030Z,81.00
2018-06-05T04:39:57.409Z,81.00
2018-06-05T04:42:25.841Z,81.10
2018-06-05T04:44:54.250Z,81.30
2018-06-05T04:49:57.364Z,81.50
2018-06-05T04:52:25.729Z,81.70
2018-06-05T04:54:54.286Z,82.00
2018-06-05T04:57:22.694Z,82.20
2018-06-05T04:59:51.645Z,82.10
2018-06-05T05:02:20.071Z,82.30
2018-06-05T05:04:48.694Z,82.40
2018-06-05T05:09:45.244Z,82.40
2018-06-05T05:12:13.630Z,82.50
2018-06-05T05:14:42.041Z,82.40
2018-06-05T05:17:10.423Z,82.40
2018-06-05T05:19:38.854Z,82.40
2018-06-05T05:22:07.313Z,82.10
2018-06-05T05:27:03.932Z,82.10
2018-06-05T05:29:32.359Z,82.10
2018-06-05T05:32:00.770Z,82.00
2018-06-05T05:34:29.518Z,81.60
2018-06-05T05:36:57.913Z,80.10
2018-06-05T05:39:26.281Z,78.30
2018-06-05T05:41:54.720Z,76.90
2018-06-05T05:44:23.122Z,75.30
2018-06-05T05:46:51.598Z,74.50
2018-06-05T05:49:20.024Z,73.40
2018-06-05T05:51:48.529Z,73.30
2018-06-05T05:54:17.667Z,72.70
2018-06-05T05:56:46.078Z,72.40
2018-06-05T05:59:14.451Z,72.10
2018-06-05T06:01:42.825Z,71.70
2018-06-05T06:04:11.229Z,71.30
2018-06-05T06:06:39.679Z,71.10
2018-06-05T06:09:08.437Z,71.00
2018-06-05T06:11:36.864Z,70.20
2018-06-05T06:16:33.405Z,69.40
2018-06-05T06:19:01.807Z,69.10
2018-06-05T06:21:30.301Z,68.70
2018-06-05T06:23:58.645Z,68.70
2018-06-05T06:26:27.047Z,68.20
2018-06-05T06:28:56.075Z,67.90
2018-06-05T06:31:24.509Z,68.10
2018-06-05T06:33:52.898Z,67.80
2018-06-05T06:36:21.358Z,67.40
2018-06-05T06:38:49.845Z,67.30
2018-06-05T06:41:18.268Z,67.00
2018-06-05T06:43:46.646Z,67.00
2018-06-05T06:46:14.995Z,67.00
2018-06-05T06:48:43.480Z,66.60
2018-06-05T06:51:11.824Z,66.80
2018-06-05T06:53:40.220Z,66.70
2018-06-05T06:56:08.652Z,66.00
2018-06-05T06:58:37.122Z,65.00
2018-06-05T07:01:05.527Z,65.10
2018-06-05T07:03:33.959Z,63.40
2018-06-05T07:06:02.378Z,63.10
2018-06-05T07:08:30.806Z,61.60
2018-06-05T07:10:59.202Z,60.80
2018-06-05T07:13:27.641Z,60.00
2018-06-05T07:15:56.121Z,59.20
2018-06-05T07:18:24.530Z,58.60
2018-06-05T07:20:52.942Z,58.40
2018-06-05T07:23:21.429Z,58.70
2018-06-05T07:25:49.813Z,58.80
2018-06-05T07:28:18.323Z,59.40
2018-06-05T07:30:46.783Z,59.00
2018-06-05T07:33:15.242Z,58.70
2018-06-05T07:35:43.781Z,58.80
2018-06-05T07:38:12.208Z,59.20
2018-06-05T07:40:40.692Z,59.20
2018-06-05T07:43:09.092Z,59.60
2018-06-05T07:45:38.194Z,59.30
2018-06-05T07:48:06.826Z,59.10
2018-06-05T07:50:35.344Z,58.90
2018-06-05T07:53:03.769Z,58.00
2018-06-05T07:55:32.206Z,58.50
2018-06-05T07:58:00.617Z,58.60
2018-06-05T08:00:29.026Z,57.80
2018-06-05T08:02:57.387Z,57.60
2018-06-05T08:05:25.755Z,56.80
2018-06-05T08:07:54.150Z,56.70
2018-06-05T08:10:22.584Z,56.70
2018-06-05T08:12:50.937Z,56.20
2018-06-05T08:15:19.343Z,55.50
2018-06-05T08:17:47.781Z,55.80
2018-06-05T08:20:16.207Z,55.70
2018-06-05T08:22:55.562Z,55.80
2018-06-05T08:25:23.987Z,55.20
2018-06-05T08:27:52.548Z,54.40
2018-06-05T08:30:21.053Z,54.80
2018-06-05T08:32:49.503Z,54.50
2018-06-05T08:35:18.406Z,53.60
2018-06-05T08:37:46.826Z,53.10
2018-06-05T08:40:15.231Z,52.70
2018-06-05T08:42:43.588Z,52.40
2018-06-05T08:45:11.972Z,52.30
2018-06-05T08:47:40.498Z,52.60
2018-06-05T08:50:08.951Z,53.10
2018-06-05T08:52:37.334Z,52.70
2018-06-05T08:55:06.368Z,52.50
2018-06-05T08:57:34.803Z,52.20
2018-06-05T09:00:03.265Z,51.80
2018-06-05T09:02:31.661Z,51.90
2018-06-05T09:05:00.126Z,51.60
2018-06-05T09:07:28.506Z,51.40
2018-06-05T09:09:56.919Z,51.60
2018-06-05T09:12:25.262Z,50.70
2018-06-05T09:14:53.655Z,50.90
2018-06-05T09:17:22.196Z,50.70
2018-06-05T09:19:50.613Z,50.60
2018-06-05T09:22:18.998Z,50.10
2018-06-05T09:24:47.442Z,49.70
2018-06-05T09:27:15.813Z,49.70
2018-06-05T09:29:44.183Z,49.40
2018-06-05T09:32:12.597Z,48.90
2018-06-05T09:37:09.204Z,49.60
2018-06-05T09:39:37.829Z,48.70
2018-06-05T09:42:06.279Z,48.20
2018-06-05T09:44:34.667Z,48.30
2018-06-05T09:47:03.069Z,49.00
2018-06-05T09:49:31.664Z,48.60
2018-06-05T09:52:00.101Z,48.20
2018-06-05T09:54:28.561Z,48.40
2018-06-05T09:56:56.965Z,47.50
2018-06-05T09:59:25.412Z,47.70
2018-06-05T10:01:53.933Z,47.40
2018-06-05T10:04:22.310Z,47.20
2018-06-05T10:06:50.714Z,47.40
2018-06-05T10:09:25.514Z,47.50
2018-06-05T10:11:53.940Z,48.00
2018-06-05T10:14:22.381Z,47.70
2018-06-05T10:16:50.794Z,47.20
2018-06-05T10:19:19.454Z,45.90
2018-06-05T10:21:47.871Z,45.70
2018-06-05T10:24:16.251Z,45.30
2018-06-05T10:26:44.653Z,45.10
2018-06-05T10:29:13.288Z,44.00
2018-06-05T10:31:41.741Z,42.50
2018-06-05T10:34:10.120Z,41.90
2018-06-05T10:36:38.577Z,41.40
2018-06-05T10:39:07.978Z,39.70
2018-06-05T10:41:36.470Z,40.20
2018-06-05T10:44:05.054Z,39.20
2018-06-05T10:46:33.514Z,39.20
2018-06-05T10:49:01.897Z,37.20
2018-06-05T10:51:30.347Z,37.00
2018-06-05T10:53:59.784Z,37.10
2018-06-05T10:56:34.972Z,36.10
2018-06-05T11:01:31.688Z,36.40
2018-06-05T11:04:00.134Z,37.10
2018-06-05T11:06:28.606Z,36.80
2018-06-05T11:08:57.031Z,36.50
2018-06-05T11:11:25.448Z,35.90
2018-06-05T11:13:53.878Z,36.20
2018-06-05T11:16:23.322Z,36.20
2018-06-05T11:18:51.704Z,36.10
2018-06-05T11:21:20.287Z,36.40
2018-06-05T11:23:48.849Z,36.70
2018-06-05T11:26:17.268Z,36.10
2018-06-05T11:28:45.891Z,37.30
2018-06-05T11:31:14.344Z,37.30
2018-06-05T11:33:42.811Z,37.80
2018-06-05T11:36:11.198Z,35.80
2018-06-05T11:38:39.613Z,34.50
2018-06-05T11:41:08.006Z,32.20
2018-06-05T11:43:36.405Z,30.40
2018-06-05T11:46:05.007Z,30.30
2018-06-05T11:48:33.428Z,30.00
2018-06-05T11:51:01.881Z,29.70
2018-06-05T11:53:30.350Z,29.50
2018-06-05T11:55:58.867Z,29.80
2018-06-05T11:58:27.352Z,30.30
2018-06-05T12:00:55.744Z,31.60
2018-06-05T12:03:24.261Z,32.20
2018-06-05T12:05:52.826Z,32.80
2018-06-05T12:08:21.234Z,31.00
2018-06-05T12:10:49.604Z,29.60
2018-06-05T12:13:18.639Z,28.20
2018-06-05T12:15:47.150Z,27.50
2018-06-05T12:18:15.557Z,27.20
2018-06-05T12:20:44.020Z,28.80
2018-06-05T12:23:12.553Z,29.20
2018-06-05T12:25:41.120Z,29.90
2018-06-05T12:28:09.573Z,30.10
2018-06-05T12:30:38.317Z,29.40
2018-06-05T12:35:34.878Z,26.60
2018-06-05T12:38:03.344Z,25.70
2018-06-05T12:40:31.788Z,25.00
2018-06-05T12:43:00.137Z,23.70
2018-06-05T12:45:28.603Z,23.00
2018-06-05T12:47:57.120Z,22.90
2018-06-05T12:50:25.564Z,22.40
2018-06-05T12:52:53.927Z,21.90
2018-06-05T12:55:22.370Z,21.40
2018-06-05T12:57:50.787Z,21.10
2018-06-05T13:00:19.202Z,20.90
2018-06-05T13:02:47.803Z,20.40
2018-06-05T13:05:16.450Z,19.70
2018-06-05T13:07:44.933Z,19.40
2018-06-05T13:10:13.374Z,19.00
2018-06-05T13:12:41.792Z,19.50
2018-06-05T13:15:10.265Z,20.20
2018-06-05T13:17:38.977Z,20.70
2018-06-05T13:20:07.415Z,21.80
2018-06-05T13:22:35.946Z,21.60
2018-06-05T13:25:04.663Z,21.80
2018-06-05T13:27:34.561Z,22.80
2018-06-05T13:30:05.495Z,24.20
2018-06-05T13:32:35.642Z,25.30
2018-06-05T13:35:05.980Z,26.00
2018-06-05T13:37:36.399Z,26.60
2018-06-05T13:40:06.477Z,26.80
2018-06-05T13:42:36.137Z,27.50
2018-06-05T13:45:04.750Z,28.00
2018-06-05T13:47:33.351Z,28.50
2018-06-05T13:50:01.757Z,28.30
2018-06-05T13:52:30.224Z,28.80
2018-06-05T13:54:58.712Z,28.80
2018-06-05T13:57:27.159Z,27.30
2018-06-05T13:59:55.538Z,25.10
2018-06-05T14:02:25.854Z,22.90
2018-06-05T14:04:54.407Z,21.40
2018-06-05T14:07:22.816Z,21.10
2018-06-05T14:09:51.194Z,20.10
2018-06-05T14:12:19.662Z,20.40
2018-06-05T14:14:49.050Z,20.00
2018-06-05T14:17:17.505Z,19.30
2018-06-05T14:19:52.593Z,18.40
2018-06-05T14:22:20.978Z,18.10
2018-06-05T14:24:49.479Z,17.60
2018-06-05T14:27:17.895Z,17.10
2018-06-05T14:29:46.617Z,17.70
2018-06-05T14:32:15.073Z,19.00
2018-06-05T14:34:43.421Z,20.50
2018-06-05T14:37:11.977Z,22.00
2018-06-05T14:42:08.462Z,23.90
2018-06-05T14:44:36.893Z,23.00
2018-06-05T14:47:05.355Z,21.40
2018-06-05T14:49:33.730Z,20.80
2018-06-05T14:52:02.119Z,20.70
2018-06-05T14:54:30.523Z,19.80
2018-06-05T14:56:58.932Z,18.80
2018-06-05T14:59:27.302Z,18.20
2018-06-05T15:01:55.708Z,18.10
2018-06-05T15:04:24.103Z,17.90
2018-06-05T15:06:52.529Z,17.40
2018-06-05T15:09:20.969Z,16.70
2018-06-05T15:11:49.372Z,16.70
2018-06-05T15:14:17.730Z,16.90
2018-06-05T15:16:46.130Z,17.80
2018-06-05T15:19:14.591Z,18.00
2018-06-05T15:21:43.047Z,17.50
2018-06-05T15:24:11.446Z,17.10
2018-06-05T15:26:39.834Z,16.60
2018-06-05T15:29:08.242Z,16.70
2018-06-05T15:31:36.634Z,17.70
2018-06-05T15:34:05.129Z,18.10
2018-06-05T15:36:33.559Z,19.50
2018-06-05T15:39:01.973Z,19.10
2018-06-05T15:41:30.492Z,18.70
2018-06-05T15:43:58.898Z,18.60
2018-06-05T15:46:27.331Z,17.80
2018-06-05T15:48:55.727Z,18.00
2018-06-05T15:51:24.258Z,16.70
2018-06-05T15:53:52.705Z,16.90
2018-06-05T15:56:21.159Z,16.60
2018-06-05T16:01:19.225Z,16.20
2018-06-05T16:03:47.654Z,16.50
2018-06-05T16:06:16.062Z,16.80
2018-06-05T16:11:19.110Z,16.70
2018-06-05T16:13:47.494Z,16.70
2018-06-05T16:16:15.962Z,16.20
2018-06-05T16:18:44.801Z,16.10
2018-06-05T16:21:13.250Z,16.50
2018-06-05T16:23:41.648Z,16.10
2018-06-05T16:26:10.120Z,16.10
2018-06-05T16:28:38.538Z,16.20
2018-06-05T16:31:13.508Z,16.10
2018-06-05T16:33:41.955Z,16.10
2018-06-05T16:36:10.307Z,16.20
2018-06-05T16:38:38.761Z,16.50
2018-06-05T16:41:07.163Z,16.60
2018-06-05T16:43:35.579Z,17.00
2018-06-05T16:47:33.429Z,16.90
2018-06-05T16:50:01.922Z,17.00
2018-06-05T16:52:30.310Z,17.10
2018-06-05T16:54:58.691Z,17.40
2018-06-05T16:57:27.201Z,17.50
2018-06-05T16:59:55.655Z,17.60
2018-06-05T17:02:24.158Z,17.50
2018-06-05T17:04:52.977Z,17.70
2018-06-05T17:07:21.456Z,17.70
2018-06-05T17:09:49.895Z,17.70
2018-06-05T17:12:18.339Z,18.10
2018-06-05T17:14:46.741Z,18.20
2018-06-05T17:17:15.406Z,18.80
2018-06-05T17:19:43.934Z,18.90
2018-06-05T17:22:12.358Z,19.10
2018-06-05T17:24:40.764Z,19.20
2018-06-05T17:27:09.178Z,19.10
2018-06-05T17:29:37.629Z,19.40
2018-06-05T17:32:06.258Z,19.50
2018-06-05T17:34:34.774Z,19.70
2018-06-05T17:37:03.163Z,20.00
2018-06-05T17:39:31.570Z,20.00
2018-06-05T17:41:59.951Z,20.00
2018-06-05T17:46:56.519Z,20.20
2018-06-05T17:49:24.931Z,20.50
2018-06-05T17:51:53.360Z,20.90
2018-06-05T17:54:21.791Z,21.00
2018-06-05T17:56:50.199Z,21.30
2018-06-05T17:59:18.745Z,21.30
2018-06-05T18:01:47.111Z,21.70
2018-06-05T18:04:15.555Z,22.10
2018-06-05T18:06:43.942Z,22.30
2018-06-05T18:09:12.343Z,22.10
2018-06-05T18:11:40.709Z,22.00
2018-06-05T18:14:09.100Z,22.40
2018-06-05T18:16:37.564Z,22.80
2018-06-05T18:19:05.959Z,23.30
2018-06-05T18:21:34.371Z,23.60
2018-06-05T18:24:02.818Z,24.00
2018-06-05T18:26:31.277Z,24.30
2018-06-05T18:28:59.682Z,24.90
2018-06-05T18:31:28.120Z,25.20
2018-06-05T18:33:56.555Z,25.70
2018-06-05T18:36:24.995Z,26.00
2018-06-05T18:38:53.874Z,26.00
2018-06-05T18:41:22.358Z,26.50
2018-06-05T18:43:50.740Z,26.60
2018-06-05T18:46:19.235Z,27.00
2018-06-05T18:48:47.559Z,27.50
2018-06-05T18:51:15.930Z,27.80
2018-06-05T18:53:44.300Z,27.90
2018-06-05T18:56:12.748Z,28.40
2018-06-05T18:58:41.103Z,28.70
2018-06-05T19:01:09.494Z,29.40
2018-06-05T19:06:06.280Z,30.50
2018-06-05T19:08:34.673Z,31.40
2018-06-05T19:11:03.117Z,32.30
2018-06-05T19:13:31.518Z,33.10
2018-06-05T19:15:59.936Z,33.50
2018-06-05T19:18:28.313Z,34.10
2018-06-05T19:20:56.745Z,34.90
2018-06-05T19:23:25.178Z,35.30
2018-06-05T19:28:21.661Z,36.80
2018-06-05T19:30:50.113Z,37.20
2018-06-05T19:33:18.542Z,37.80
2018-06-05T19:35:46.924Z,38.20
2018-06-05T19:38:15.466Z,38.50
2018-06-05T19:41:47.138Z,38.90
2018-06-05T19:44:15.531Z,39.30
2018-06-05T19:46:44.043Z,39.80
2018-06-05T19:49:12.423Z,40.30
2018-06-05T19:51:40.826Z,40.80
2018-06-05T19:54:09.216Z,41.10
2018-06-05T19:56:37.663Z,41.70
2018-06-05T19:59:06.057Z,42.00
2018-06-05T20:01:34.727Z,42.50
2018-06-05T20:04:03.105Z,43.10
2018-06-05T20:06:31.596Z,43.80
2018-06-05T20:08:59.966Z,44.70
2018-06-05T20:11:28.371Z,45.10
2018-06-05T20:13:56.771Z,45.60
2018-06-05T20:16:25.192Z,46.10
2018-06-05T20:18:53.612Z,46.70
2018-06-05T20:21:22.011Z,47.00
2018-06-05T20:23:50.406Z,47.40
2018-06-05T20:26:18.811Z,47.90
2018-06-05T20:28:47.186Z,48.10
2018-06-05T20:31:15.559Z,48.60
2018-06-05T20:33:43.959Z,48.90
2018-06-05T20:36:12.289Z,49.30
2018-06-05T20:38:40.699Z,49.70
2018-06-05T20:41:09.076Z,49.80
2018-06-05T20:43:37.459Z,50.40
2018-06-05T20:46:05.944Z,50.70
2018-06-05T20:48:34.405Z,51.10
2018-06-05T20:51:02.750Z,51.60
2018-06-05T20:53:31.147Z,51.70
2018-06-05T20:55:59.546Z,51.50
2018-06-05T20:58:28.033Z,52.10
2018-06-05T21:00:56.457Z,52.10
2018-06-05T21:03:24.889Z,52.50
2018-06-05T21:05:53.244Z,52.80
2018-06-05T21:08:21.636Z,53.00
2018-06-05T21:10:50.007Z,53.40
2018-06-05T21:13:18.454Z,53.80
2018-06-05T21:15:46.860Z,53.80
2018-06-05T21:18:15.259Z,54.00
2018-06-05T21:20:43.636Z,54.40
2018-06-05T21:23:12.039Z,54.60
2018-06-05T21:25:40.422Z,54.40
2018-06-05T21:28:08.806Z,55.00
2018-06-05T21:30:37.161Z,54.90
2018-06-05T21:33:06.050Z,55.20
2018-06-05T21:35:34.417Z,55.60
2018-06-05T21:40:30.926Z,56.00
2018-06-05T21:42:59.317Z,56.10
2018-06-05T21:45:27.695Z,56.20
2018-06-05T21:47:56.091Z,57.20
2018-06-05T21:50:24.490Z,57.00
2018-06-05T21:52:52.919Z,57.00
2018-06-05T21:55:21.310Z,57.20
2018-06-05T21:57:49.687Z,57.30
2018-06-05T22:00:20.345Z,57.30
2018-06-05T22:02:48.782Z,57.40
2018-06-05T22:05:17.138Z,57.50
2018-06-05T22:07:45.520Z,58.00
2018-06-05T22:10:13.938Z,58.30
2018-06-05T22:12:42.307Z,58.20
2018-06-05T22:15:10.713Z,58.60
2018-06-05T22:17:39.080Z,58.60
2018-06-05T22:20:07.724Z,59.10
2018-06-05T22:22:36.085Z,59.50
2018-06-05T22:25:04.697Z,59.60
2018-06-05T22:27:33.043Z,59.60
2018-06-05T22:30:01.422Z,60.00
2018-06-05T22:32:31.043Z,60.30
2018-06-05T22:34:59.434Z,60.50
2018-06-05T22:37:27.799Z,60.90
2018-06-05T22:39:56.164Z,61.10
2018-06-05T22:42:24.511Z,61.70
2018-06-05T22:44:52.911Z,61.80
2018-06-05T22:47:21.376Z,62.40
2018-06-05T22:49:49.753Z,62.00
2018-06-05T22:52:18.183Z,62.10
2018-06-05T22:54:46.604Z,62.40
2018-06-05T22:57:14.986Z,62.80
2018-06-05T22:59:43.398Z,62.80
2018-06-05T23:02:11.913Z,63.20
2018-06-05T23:04:40.304Z,63.20
2018-06-05T23:07:08.661Z,63.60
2018-06-05T23:09:37.094Z,63.60
2018-06-05T23:12:05.522Z,64.10
2018-06-05T23:14:33.926Z,64.50
2018-06-05T23:17:02.309Z,65.00
2018-06-05T23:19:30.751Z,65.00
2018-06-05T23:21:59.314Z,65.10
2018-06-05T23:24:27.710Z,65.30
2018-06-05T23:26:56.128Z,65.40
2018-06-05T23:29:24.718Z,65.40
2018-06-05T23:34:21.207Z,66.00
2018-06-05T23:36:49.574Z,66.40
2018-06-05T23:39:17.982Z,66.30
2018-06-05T23:41:46.346Z,66.80
2018-06-05T23:44:14.728Z,67.10
2018-06-05T23:46:43.098Z,67.10
2018-06-05T23:49:11.534Z,67.30
2018-06-05T23:51:39.911Z,67.50
2018-06-05T23:54:08.316Z,67.60
2018-06-05T23:56:36.727Z,67.80
2018-06-05T23:59:05.089Z,67.90
